Main page
METAR-TAF:

METAR-TAF

Airports :

Norwich, England

Norwich Airport

latitude: 52-38N, longitude: 001-18E, elevation: 14 m

Current weather observation

The report was made 28 minutes ago, at 17:20 UTC
Wind 5 kt from the North/Northwest, varying between West/Northwest and North
Temperature 10°C
Humidity 57%
Pressure 1016 hPa
Visibility 10 km or more
Few clouds at a height of 3500 ft

METAR: EGSH 281720Z 33005KT 300V360 9999 FEW035 10/02 Q1016

Time: 18:48 (17:48 UTC)

Forecast

The report was made 43 minutes ago, at 17:05 UTC
Forecast valid from 28 at 18 UTC to 28 at 24 UTC
Wind 9 kt from the North/Northwest
Visibility 10 km or more
Scattered clouds at a height of 3500 ft

TAF: EGSH 281705Z 2818/2824 34009KT 9999 SCT035

Weather observations and forecasts of more than 4000 airports (METAR and TAF reports).

The available stations are represented by yellow and red dots on the map.

Hover mouse over dot to see the name of the station.

Then click to see weather observations and forecasts.

To change the map : click on the green buttons with a black cross to zoom in, on the green button with a dash to zoom out, or on the green arrows for adjacent maps.


METAR-TAF: